createdAt,value
2019-04-14T00:01:08.656Z,24.98
2019-04-14T00:03:39.708Z,25.37
2019-04-14T00:06:09.164Z,24.82
2019-04-14T00:08:39.426Z,24.57
2019-04-14T00:11:08.922Z,24.30
2019-04-14T00:13:39.266Z,25.27
2019-04-14T00:16:09.590Z,25.45
2019-04-14T00:18:40.352Z,23.22
2019-04-14T00:21:10.780Z,23.47
2019-04-14T00:23:41.230Z,24.12
2019-04-14T00:26:29.325Z,23.70
2019-04-14T00:29:00.089Z,24.45
2019-04-14T00:31:30.766Z,25.50
2019-04-14T00:34:02.871Z,24.07
2019-04-14T00:36:34.946Z,24.37
2019-04-14T00:39:07.481Z,23.35
2019-04-14T00:41:51.934Z,23.38
2019-04-14T00:44:34.446Z,24.27
2019-04-14T00:47:05.355Z,23.98
2019-04-14T00:49:35.424Z,24.92
2019-04-14T00:52:05.733Z,24.32
2019-04-14T00:54:35.273Z,23.45
2019-04-14T00:57:05.143Z,23.18
2019-04-14T00:59:35.453Z,23.90
2019-04-14T01:02:05.860Z,23.57
2019-04-14T01:04:36.114Z,23.92
2019-04-14T01:07:06.489Z,22.73
2019-04-14T01:09:36.938Z,23.92
2019-04-14T01:12:06.306Z,23.32
2019-04-14T01:14:36.562Z,23.85
2019-04-14T01:17:06.913Z,24.60
2019-04-14T01:19:37.297Z,23.87
2019-04-14T01:22:07.659Z,23.50
2019-04-14T01:24:38.111Z,24.60
2019-04-14T01:27:08.116Z,24.02
2019-04-14T01:29:38.655Z,23.38
2019-04-14T01:32:08.827Z,24.12
2019-04-14T01:34:39.143Z,23.85
2019-04-14T01:37:09.319Z,23.45
2019-04-14T01:39:39.317Z,24.10
2019-04-14T01:42:09.521Z,22.93
2019-04-14T01:44:39.578Z,24.25
2019-04-14T01:47:10.092Z,23.50
2019-04-14T01:49:39.721Z,23.77
2019-04-14T01:52:13.194Z,24.35
2019-04-14T01:54:45.195Z,23.30
2019-04-14T01:57:26.300Z,23.95
2019-04-14T01:59:56.697Z,23.65
2019-04-14T02:02:27.683Z,22.10
2019-04-14T02:04:57.551Z,23.55
2019-04-14T02:07:27.657Z,23.90
2019-04-14T02:09:57.536Z,23.07
2019-04-14T02:12:27.889Z,23.98
2019-04-14T02:14:58.228Z,22.37
2019-04-14T02:17:28.494Z,22.27
2019-04-14T02:19:58.854Z,23.75
2019-04-14T02:22:29.115Z,22.00
2019-04-14T02:24:59.262Z,22.77
2019-04-14T02:27:29.736Z,22.40
2019-04-14T02:30:00.344Z,22.90
2019-04-14T02:33:00.428Z,23.22
2019-04-14T02:35:35.117Z,22.93
2019-04-14T02:38:08.939Z,23.15
2019-04-14T02:40:36.328Z,21.68
2019-04-14T02:43:02.739Z,24.02
2019-04-14T02:45:45.205Z,22.58
2019-04-14T02:48:20.298Z,22.93
2019-04-14T02:50:30.640Z,23.25
2019-04-14T02:53:07.692Z,23.32
2019-04-14T02:55:42.210Z,23.60
2019-04-14T02:58:10.434Z,22.45
2019-04-14T03:00:41.714Z,23.07
2019-04-14T03:03:16.137Z,21.85
2019-04-14T03:05:44.684Z,23.98
2019-04-14T03:08:15.836Z,23.38
2019-04-14T03:15:48.229Z,22.82
2019-04-14T03:23:46.774Z,22.82
2019-04-14T03:26:17.773Z,23.65
2019-04-14T03:28:51.380Z,21.30
2019-04-14T03:41:31.625Z,22.75
2019-04-14T03:43:54.433Z,22.93
2019-04-14T03:51:43.131Z,23.90
2019-04-14T03:53:58.998Z,23.25
2019-04-14T03:56:14.922Z,22.00
2019-04-14T03:58:44.426Z,22.90
2019-04-14T04:01:15.003Z,23.50
2019-04-14T04:03:45.675Z,21.57
2019-04-14T04:06:15.961Z,23.15
2019-04-14T04:08:46.390Z,24.02
2019-04-14T04:11:15.802Z,22.75
2019-04-14T04:13:45.528Z,22.85
2019-04-14T04:16:16.595Z,24.12
2019-04-14T04:18:56.434Z,22.87
2019-04-14T04:21:35.540Z,23.47
2019-04-14T04:24:12.866Z,25.10
2019-04-14T04:26:44.848Z,23.02
2019-04-14T04:29:15.948Z,23.83
2019-04-14T04:31:58.970Z,24.35
2019-04-14T04:34:33.810Z,23.38
2019-04-14T04:37:08.333Z,25.65
2019-04-14T04:39:39.777Z,23.65
2019-04-14T04:42:11.292Z,23.65
2019-04-14T04:44:40.622Z,24.02
2019-04-14T04:47:10.037Z,23.12
2019-04-14T04:49:40.448Z,20.92
2019-04-14T04:52:11.426Z,24.02
2019-04-14T04:54:40.761Z,24.15
2019-04-14T04:57:11.066Z,25.30
2019-04-14T04:59:40.941Z,23.42
2019-04-14T05:02:11.249Z,23.05
2019-04-14T05:04:41.600Z,23.20
2019-04-14T05:07:12.174Z,22.15
2019-04-14T05:09:49.140Z,23.77
2019-04-14T05:12:35.003Z,23.73
2019-04-14T05:15:07.770Z,22.58
2019-04-14T05:17:45.271Z,24.25
2019-04-14T05:20:15.845Z,24.72
2019-04-14T05:22:46.177Z,25.32
2019-04-14T05:25:16.669Z,23.38
2019-04-14T05:27:47.273Z,24.18
2019-04-14T05:30:17.562Z,23.83
2019-04-14T05:32:47.948Z,23.05
2019-04-14T05:35:18.402Z,23.92
2019-04-14T05:37:48.671Z,23.07
2019-04-14T05:40:18.887Z,24.52
2019-04-14T05:42:49.365Z,24.87
2019-04-14T05:45:19.763Z,24.92
2019-04-14T05:47:50.132Z,22.70
2019-04-14T05:50:20.575Z,24.50
2019-04-14T05:52:49.932Z,23.02
2019-04-14T05:55:19.898Z,26.00
2019-04-14T05:57:50.174Z,25.32
2019-04-14T06:00:21.150Z,24.47
2019-04-14T06:02:50.728Z,23.75
2019-04-14T06:05:21.156Z,24.27
2019-04-14T06:07:50.486Z,23.30
2019-04-14T06:10:19.777Z,24.75
2019-04-14T06:12:49.031Z,24.80
2019-04-14T06:15:18.316Z,24.37
2019-04-14T06:17:47.575Z,24.47
2019-04-14T06:20:16.858Z,24.50
2019-04-14T06:22:46.191Z,25.08
2019-04-14T06:25:15.548Z,25.37
2019-04-14T06:27:44.810Z,25.68
2019-04-14T06:30:31.850Z,26.33
2019-04-14T06:33:02.754Z,24.60
2019-04-14T06:35:33.756Z,26.00
2019-04-14T06:38:05.943Z,23.87
2019-04-14T06:40:37.059Z,25.32
2019-04-14T06:43:06.318Z,25.48
2019-04-14T06:45:35.671Z,24.77
2019-04-14T06:48:04.936Z,26.80
2019-04-14T06:50:34.243Z,24.80
2019-04-14T06:53:03.504Z,25.15
2019-04-14T06:55:32.787Z,24.87
2019-04-14T06:58:02.114Z,24.00
2019-04-14T07:00:31.573Z,24.95
2019-04-14T07:03:00.841Z,24.67
2019-04-14T07:05:31.186Z,26.40
2019-04-14T07:08:00.475Z,26.37
2019-04-14T07:10:29.736Z,25.23
2019-04-14T07:12:59.019Z,25.17
2019-04-14T07:15:28.279Z,24.75
2019-04-14T07:17:57.571Z,24.60
2019-04-14T07:20:26.882Z,25.45
2019-04-14T07:22:56.167Z,25.72
2019-04-14T07:25:25.427Z,26.42
2019-04-14T07:27:54.724Z,25.27
2019-04-14T07:30:37.656Z,26.27
2019-04-14T07:33:11.447Z,25.95
2019-04-14T07:38:35.048Z,25.30
2019-04-14T07:41:08.663Z,25.57
2019-04-14T07:43:51.383Z,25.65
2019-04-14T07:46:39.003Z,26.55
2019-04-14T07:49:09.935Z,25.65
2019-04-14T07:51:40.842Z,26.60
2019-04-14T07:54:23.825Z,26.75
2019-04-14T07:56:57.692Z,26.52
2019-04-14T07:59:28.622Z,27.20
2019-04-14T08:01:59.514Z,25.27
2019-04-14T08:04:30.444Z,25.27
2019-04-14T08:06:59.708Z,26.40
2019-04-14T08:09:28.995Z,25.57
2019-04-14T08:11:58.499Z,25.60
2019-04-14T08:14:27.792Z,24.57
2019-04-14T08:16:57.147Z,25.82
2019-04-14T08:19:26.421Z,25.57
2019-04-14T08:21:55.708Z,25.70
2019-04-14T08:24:25.115Z,26.05
2019-04-14T08:26:55.497Z,26.35
2019-04-14T08:29:24.786Z,25.88
2019-04-14T08:31:54.171Z,25.95
2019-04-14T08:34:23.732Z,26.00
2019-04-14T08:36:53.102Z,27.10
2019-04-14T08:39:22.503Z,25.68
2019-04-14T08:41:53.499Z,26.07
2019-04-14T08:44:40.799Z,25.88
2019-04-14T08:47:20.779Z,26.80
2019-04-14T08:49:51.691Z,25.60
2019-04-14T08:52:24.107Z,25.90
2019-04-14T08:55:01.058Z,25.08
2019-04-14T08:57:37.672Z,25.57
2019-04-14T09:00:08.654Z,25.82
2019-04-14T09:02:54.989Z,26.73
2019-04-14T09:08:12.065Z,25.92
2019-04-14T09:10:42.967Z,24.40
2019-04-14T09:13:12.399Z,26.27
2019-04-14T09:15:41.742Z,25.00
2019-04-14T09:18:11.031Z,25.15
2019-04-14T09:20:51.755Z,25.77
2019-04-14T09:23:11.212Z,27.45
2019-04-14T09:25:40.480Z,26.60
2019-04-14T09:28:09.875Z,26.37
2019-04-14T09:30:39.212Z,26.82
2019-04-14T09:33:08.506Z,26.35
2019-04-14T09:35:37.771Z,27.20
2019-04-14T09:38:07.059Z,26.20
2019-04-14T09:40:36.472Z,26.02
2019-04-14T09:43:05.999Z,25.57
2019-04-14T09:45:35.265Z,28.12
2019-04-14T09:48:04.626Z,25.90
2019-04-14T09:50:35.059Z,26.30
2019-04-14T09:53:04.409Z,26.55
2019-04-14T09:55:34.035Z,26.77
2019-04-14T09:58:03.401Z,26.35
2019-04-14T10:00:34.563Z,25.80
2019-04-14T10:03:04.000Z,27.32
2019-04-14T10:05:34.374Z,28.75
2019-04-14T10:08:03.643Z,27.80
2019-04-14T10:10:33.112Z,27.95
2019-04-14T10:13:02.455Z,27.85
2019-04-14T10:15:31.886Z,26.93
2019-04-14T10:18:01.235Z,27.70
2019-04-14T10:20:30.596Z,26.62
2019-04-14T10:23:00.940Z,27.60
2019-04-14T10:25:30.228Z,29.12
2019-04-14T10:27:59.491Z,28.15
2019-04-14T10:30:28.785Z,27.98
2019-04-14T10:32:58.144Z,28.32
2019-04-14T10:35:27.411Z,27.22
2019-04-14T10:37:56.711Z,27.82
2019-04-14T10:40:25.975Z,28.62
2019-04-14T10:42:55.338Z,28.40
2019-04-14T10:45:24.599Z,28.38
2019-04-14T10:47:53.890Z,26.80
2019-04-14T10:50:30.737Z,27.50
2019-04-14T10:52:54.340Z,27.80
2019-04-14T10:55:23.603Z,27.17
2019-04-14T10:57:52.967Z,27.55
2019-04-14T11:00:22.612Z,27.80
2019-04-14T11:02:51.976Z,25.95
2019-04-14T11:05:21.620Z,26.75
2019-04-14T11:07:50.986Z,25.62
2019-04-14T11:10:20.263Z,26.60
2019-04-14T11:12:49.734Z,25.60
2019-04-14T11:15:19.086Z,25.60
2019-04-14T11:17:48.449Z,26.45
2019-04-14T11:20:17.791Z,27.13
2019-04-14T11:22:47.160Z,26.40
2019-04-14T11:25:16.523Z,27.05
2019-04-14T11:27:45.842Z,26.10
2019-04-14T11:30:16.779Z,24.00
2019-04-14T11:32:48.766Z,26.95
2019-04-14T11:35:22.517Z,26.10
2019-04-14T11:37:59.450Z,27.13
2019-04-14T11:40:30.387Z,27.13
2019-04-14T11:42:59.663Z,25.45
2019-04-14T11:45:29.094Z,27.30
2019-04-14T11:47:58.427Z,25.92
2019-04-14T11:50:27.727Z,27.13
2019-04-14T11:52:57.072Z,26.97
2019-04-14T11:55:26.386Z,25.92
2019-04-14T11:57:55.653Z,25.55
2019-04-14T12:00:35.548Z,24.77
2019-04-14T12:03:06.535Z,24.25
2019-04-14T12:05:43.085Z,24.27
2019-04-14T12:08:13.988Z,27.37
2019-04-14T12:10:43.280Z,24.80
2019-04-14T12:13:12.623Z,25.80
2019-04-14T12:15:41.926Z,25.17
2019-04-14T12:18:11.182Z,26.75
2019-04-14T12:20:40.474Z,25.27
2019-04-14T12:23:09.743Z,25.60
2019-04-14T12:25:39.031Z,25.35
2019-04-14T12:28:09.202Z,25.45
2019-04-14T12:30:39.791Z,24.92
2019-04-14T12:33:09.301Z,24.32
2019-04-14T12:35:38.599Z,25.82
2019-04-14T12:38:07.863Z,26.12
2019-04-14T12:40:37.175Z,26.20
2019-04-14T12:43:22.970Z,25.72
2019-04-14T12:46:00.010Z,25.97
2019-04-14T12:48:33.699Z,23.70
2019-04-14T12:51:10.843Z,25.02
2019-04-14T12:53:40.175Z,24.07
2019-04-14T12:56:09.508Z,24.23
2019-04-14T12:58:40.414Z,24.18
2019-04-14T13:01:11.343Z,24.35
2019-04-14T13:03:42.030Z,24.63
2019-04-14T13:06:11.581Z,25.08
2019-04-14T13:08:40.943Z,25.82
2019-04-14T13:11:10.235Z,24.95
2019-04-14T13:13:39.544Z,23.85
2019-04-14T13:16:08.870Z,25.17
2019-04-14T13:18:38.107Z,25.52
2019-04-14T13:21:07.483Z,24.60
2019-04-14T13:23:36.842Z,24.23
2019-04-14T13:26:07.183Z,23.70
2019-04-14T13:28:36.468Z,25.92
2019-04-14T13:31:05.802Z,24.32
2019-04-14T13:33:35.095Z,24.00
2019-04-14T13:36:05.432Z,23.32
2019-04-14T13:38:34.799Z,24.20
2019-04-14T13:41:04.263Z,23.62
2019-04-14T13:43:33.623Z,24.02
2019-04-14T13:46:02.968Z,24.50
2019-04-14T13:48:32.330Z,23.92
2019-04-14T13:51:01.595Z,22.77
2019-04-14T13:53:31.118Z,23.10
2019-04-14T13:56:02.095Z,23.32
2019-04-14T13:58:31.613Z,23.57
2019-04-14T14:01:00.951Z,24.43
2019-04-14T14:03:30.311Z,23.05
2019-04-14T14:05:59.579Z,23.35
2019-04-14T14:08:29.942Z,21.77
2019-04-14T14:11:00.855Z,21.30
2019-04-14T14:13:34.831Z,21.93
2019-04-14T14:16:16.210Z,21.17
2019-04-14T14:18:49.688Z,21.87
2019-04-14T14:21:38.743Z,22.22
2019-04-14T14:24:18.215Z,22.73
2019-04-14T14:26:55.196Z,22.93
2019-04-14T14:29:24.507Z,22.02
2019-04-14T14:31:54.498Z,21.68
2019-04-14T14:34:23.789Z,23.95
2019-04-14T14:36:53.191Z,23.62
2019-04-14T14:39:22.518Z,23.52
2019-04-14T14:41:51.891Z,24.23
2019-04-14T14:44:22.795Z,23.52
2019-04-14T14:47:00.383Z,23.38
2019-04-14T14:49:48.275Z,23.27
2019-04-14T14:52:19.210Z,22.25
2019-04-14T14:54:50.229Z,23.83
2019-04-14T14:57:23.120Z,24.70
2019-04-14T14:59:54.210Z,23.62
2019-04-14T15:02:23.917Z,23.38
2019-04-14T15:04:53.364Z,23.75
2019-04-14T15:07:24.347Z,24.02
2019-04-14T15:09:54.010Z,23.38
2019-04-14T15:12:23.530Z,23.77
2019-04-14T15:14:53.192Z,22.40
2019-04-14T15:17:25.620Z,22.93
2019-04-14T15:19:54.983Z,23.27
2019-04-14T15:22:24.378Z,23.02
2019-04-14T15:24:53.691Z,23.00
2019-04-14T15:27:23.067Z,21.68
2019-04-14T15:29:55.314Z,23.50
2019-04-14T15:32:24.616Z,23.45
2019-04-14T15:34:54.090Z,23.75
2019-04-14T15:37:23.539Z,22.00
2019-04-14T15:39:52.896Z,23.57
2019-04-14T15:42:22.294Z,23.27
2019-04-14T15:44:51.655Z,23.47
2019-04-14T15:47:21.006Z,21.85
2019-04-14T15:49:50.377Z,23.62
2019-04-14T15:52:19.868Z,23.65
2019-04-14T15:54:49.132Z,23.18
2019-04-14T15:57:20.103Z,24.05
2019-04-14T16:00:07.579Z,22.95
2019-04-14T16:02:41.215Z,22.60
2019-04-14T16:05:15.203Z,24.35
2019-04-14T16:07:46.124Z,24.32
2019-04-14T16:10:17.059Z,24.00
2019-04-14T16:12:47.967Z,23.85
2019-04-14T16:15:24.763Z,24.72
2019-04-14T16:18:11.048Z,24.02
2019-04-14T16:20:42.187Z,23.52
2019-04-14T16:23:11.505Z,23.12
2019-04-14T16:25:42.430Z,23.62
2019-04-14T16:28:19.599Z,23.22
2019-04-14T16:31:02.560Z,24.25
2019-04-14T16:33:36.578Z,25.08
2019-04-14T16:36:05.938Z,23.67
2019-04-14T16:38:35.277Z,23.47
2019-04-14T16:41:04.634Z,24.18
2019-04-14T16:43:34.065Z,24.98
2019-04-14T16:46:03.446Z,23.05
2019-04-14T16:48:32.807Z,23.42
2019-04-14T16:51:02.411Z,22.77
2019-04-14T16:53:33.406Z,24.05
2019-04-14T16:56:20.605Z,22.25
2019-04-14T16:58:51.578Z,23.87
2019-04-14T17:01:35.086Z,24.02
2019-04-14T17:04:04.420Z,22.65
2019-04-14T17:06:33.823Z,21.75
2019-04-14T17:09:04.991Z,22.75
2019-04-14T17:11:35.906Z,23.30
2019-04-14T17:14:09.707Z,22.22
2019-04-14T17:16:40.639Z,23.18
2019-04-14T17:19:11.567Z,22.40
2019-04-14T17:21:42.549Z,22.55
2019-04-14T17:24:19.771Z,23.40
2019-04-14T17:26:53.962Z,23.50
2019-04-14T17:29:43.152Z,24.45
2019-04-14T17:32:19.921Z,22.95
2019-04-14T17:34:59.835Z,23.20
2019-04-14T17:37:49.351Z,24.35
2019-04-14T17:40:29.339Z,22.40
2019-04-14T17:43:03.407Z,23.85
2019-04-14T17:45:34.619Z,22.70
2019-04-14T17:48:08.265Z,23.45
2019-04-14T17:50:55.802Z,22.93
2019-04-14T17:53:26.779Z,24.12
2019-04-14T17:56:03.663Z,23.52
2019-04-14T17:58:34.664Z,24.12
2019-04-14T18:04:00.007Z,23.80
2019-04-14T18:06:30.934Z,23.52
2019-04-14T18:09:11.163Z,25.10
2019-04-14T18:11:50.976Z,24.27
2019-04-14T18:14:27.421Z,24.52
2019-04-14T18:19:49.501Z,23.87
2019-04-14T18:22:18.787Z,23.65
2019-04-14T18:24:48.047Z,24.47
2019-04-14T18:27:17.335Z,24.12
2019-04-14T18:29:48.407Z,25.48
2019-04-14T18:32:28.155Z,24.67
2019-04-14T18:35:08.323Z,24.40
2019-04-14T18:37:54.407Z,25.45
2019-04-14T18:40:41.474Z,24.83
2019-04-14T18:43:12.479Z,25.17
2019-04-14T18:45:50.435Z,24.30
2019-04-14T18:48:39.891Z,25.12
2019-04-14T18:51:19.887Z,25.55
2019-04-14T18:53:56.707Z,23.15
2019-04-14T18:56:30.440Z,24.35
2019-04-14T18:59:04.507Z,25.65
2019-04-14T19:01:35.402Z,25.80
2019-04-14T19:04:05.462Z,24.98
2019-04-14T19:06:36.395Z,24.05
2019-04-14T19:09:07.187Z,24.67
2019-04-14T19:11:55.968Z,24.82
2019-04-14T19:14:26.895Z,24.95
2019-04-14T19:17:00.570Z,23.92
2019-04-14T19:19:31.231Z,24.45
2019-04-14T19:22:00.493Z,23.95
2019-04-14T19:24:29.776Z,23.05
2019-04-14T19:26:59.070Z,23.75
2019-04-14T19:29:28.323Z,23.45
2019-04-14T19:31:57.582Z,23.90
2019-04-14T19:34:26.876Z,22.48
2019-04-14T19:36:56.156Z,22.15
2019-04-14T19:39:25.510Z,24.25
2019-04-14T19:41:54.775Z,23.07
2019-04-14T19:44:24.137Z,23.00
2019-04-14T19:46:53.395Z,23.05
2019-04-14T19:49:22.682Z,23.00
2019-04-14T19:51:51.943Z,23.02
2019-04-14T19:54:21.228Z,23.52
2019-04-14T19:56:50.555Z,22.10
2019-04-14T19:59:19.847Z,23.15
2019-04-14T20:01:49.153Z,22.45
2019-04-14T20:04:18.525Z,21.75
2019-04-14T20:06:47.807Z,24.07
2019-04-14T20:09:17.076Z,22.93
2019-04-14T20:11:46.462Z,23.50
2019-04-14T20:14:15.795Z,23.05
2019-04-14T20:16:46.726Z,22.95
2019-04-14T20:19:23.622Z,22.80
2019-04-14T20:21:57.439Z,21.37
2019-04-14T20:24:37.282Z,23.25
2019-04-14T20:27:24.774Z,23.12
2019-04-14T20:29:58.759Z,22.48
2019-04-14T20:32:32.746Z,22.25
2019-04-14T20:35:02.145Z,21.68
2019-04-14T20:37:31.664Z,21.48
2019-04-14T20:40:00.890Z,23.22
2019-04-14T20:42:31.947Z,23.25
2019-04-14T20:45:01.477Z,22.87
2019-04-14T20:47:31.995Z,23.57
2019-04-14T20:50:01.251Z,22.20
2019-04-14T20:52:30.607Z,22.60
2019-04-14T20:54:59.887Z,22.52
2019-04-14T20:57:30.487Z,22.37
2019-04-14T20:59:59.939Z,23.12
2019-04-14T21:02:30.910Z,22.13
2019-04-14T21:05:13.983Z,22.45
2019-04-14T21:07:53.929Z,22.35
2019-04-14T21:10:24.851Z,23.32
2019-04-14T21:12:58.255Z,22.25
2019-04-14T21:15:32.370Z,23.65
2019-04-14T21:18:09.269Z,23.50
2019-04-14T21:20:53.300Z,24.40
2019-04-14T21:23:39.397Z,22.25
2019-04-14T21:26:15.955Z,22.17
2019-04-14T21:28:49.655Z,23.65
2019-04-14T21:31:23.499Z,22.00
2019-04-14T21:34:06.350Z,24.77
2019-04-14T21:36:53.723Z,24.52
2019-04-14T21:39:40.739Z,23.85
2019-04-14T21:42:11.258Z,24.32
2019-04-14T21:44:40.519Z,25.97
2019-04-14T21:47:10.879Z,26.05
2019-04-14T21:49:40.139Z,24.77
2019-04-14T21:52:20.342Z,26.02
2019-04-14T21:54:49.782Z,26.55
2019-04-14T21:57:26.918Z,27.37
2019-04-14T22:00:14.063Z,25.77
2019-04-14T22:03:01.674Z,26.35
2019-04-14T22:05:32.622Z,26.80
2019-04-14T22:08:12.806Z,26.17
2019-04-14T22:10:46.753Z,25.90
2019-04-14T22:13:16.308Z,26.62
2019-04-14T22:15:45.590Z,25.97
2019-04-14T22:18:15.626Z,27.67
2019-04-14T22:20:44.962Z,25.95
2019-04-14T22:23:14.301Z,27.58
2019-04-14T22:25:43.655Z,26.68
2019-04-14T22:28:12.914Z,25.30
2019-04-14T22:30:43.267Z,26.07
2019-04-14T22:33:12.535Z,26.90
2019-04-14T22:35:41.824Z,26.33
2019-04-14T22:38:11.082Z,25.52
2019-04-14T22:40:40.439Z,26.73
2019-04-14T22:43:09.780Z,27.05
2019-04-14T22:45:39.056Z,28.05
2019-04-14T22:48:08.391Z,28.45
2019-04-14T22:50:37.679Z,26.15
2019-04-14T22:53:06.945Z,27.52
2019-04-14T22:55:36.459Z,26.40
2019-04-14T22:58:05.783Z,27.00
2019-04-14T23:00:39.415Z,28.23
2019-04-14T23:03:13.038Z,28.52
2019-04-14T23:06:00.230Z,29.32
2019-04-14T23:08:40.291Z,27.52
2019-04-14T23:11:11.225Z,27.93
2019-04-14T23:13:42.150Z,27.20
2019-04-14T23:16:15.520Z,26.87
2019-04-14T23:18:49.479Z,28.17
2019-04-14T23:21:36.998Z,27.50
2019-04-14T23:24:16.938Z,28.75
2019-04-14T23:26:52.280Z,29.70
2019-04-14T23:29:17.200Z,28.50
2019-04-14T23:31:46.556Z,29.05
2019-04-14T23:34:15.835Z,29.42
2019-04-14T23:36:45.115Z,28.87
2019-04-14T23:39:14.471Z,28.55
2019-04-14T23:41:43.735Z,29.65
2019-04-14T23:44:13.020Z,28.42
2019-04-14T23:46:42.356Z,29.45
2019-04-14T23:49:11.635Z,29.72
2019-04-14T23:51:40.894Z,29.23
2019-04-14T23:54:10.176Z,29.37
2019-04-14T23:56:40.512Z,30.48
2019-04-14T23:59:09.866Z,30.70
